sensor_id;sensor_type;location;lat;lon;timestamp;P1;durP1;ratioP1;P2;durP2;ratioP2
69327;SDS011;56472;52.114;5.492;2023-03-31T00:00:44;18.10;;;3.20;;
69327;SDS011;56472;52.114;5.492;2023-03-31T00:03:12;22.02;;;3.75;;
69327;SDS011;56472;52.114;5.492;2023-03-31T00:05:47;15.32;;;3.28;;
69327;SDS011;56472;52.114;5.492;2023-03-31T00:08:14;11.35;;;3.13;;
69327;SDS011;56472;52.114;5.492;2023-03-31T00:10:43;15.32;;;3.00;;
69327;SDS011;56472;52.114;5.492;2023-03-31T00:13:11;14.68;;;2.90;;
69327;SDS011;56472;52.114;5.492;2023-03-31T00:15:39;13.75;;;2.40;;
69327;SDS011;56472;52.114;5.492;2023-03-31T00:18:06;11.05;;;2.85;;
69327;SDS011;56472;52.114;5.492;2023-03-31T00:20:33;10.60;;;2.55;;
69327;SDS011;56472;52.114;5.492;2023-03-31T00:23:03;12.80;;;2.80;;
69327;SDS011;56472;52.114;5.492;2023-03-31T00:25:39;14.95;;;3.00;;
69327;SDS011;56472;52.114;5.492;2023-03-31T00:28:07;19.60;;;3.72;;
69327;SDS011;56472;52.114;5.492;2023-03-31T00:30:33;12.73;;;2.65;;
69327;SDS011;56472;52.114;5.492;2023-03-31T00:33:00;14.40;;;3.40;;
69327;SDS011;56472;52.114;5.492;2023-03-31T00:35:28;17.73;;;3.90;;
69327;SDS011;56472;52.114;5.492;2023-03-31T00:37:56;11.40;;;3.47;;
69327;SDS011;56472;52.114;5.492;2023-03-31T00:40:23;15.35;;;3.13;;
69327;SDS011;56472;52.114;5.492;2023-03-31T00:42:50;12.35;;;2.90;;
69327;SDS011;56472;52.114;5.492;2023-03-31T00:45:22;21.70;;;3.53;;
69327;SDS011;56472;52.114;5.492;2023-03-31T00:47:54;17.50;;;3.45;;
69327;SDS011;56472;52.114;5.492;2023-03-31T00:50:29;17.05;;;3.28;;
69327;SDS011;56472;52.114;5.492;2023-03-31T00:53:02;21.65;;;3.42;;
69327;SDS011;56472;52.114;5.492;2023-03-31T00:55:34;14.90;;;2.67;;
69327;SDS011;56472;52.114;5.492;2023-03-31T00:58:07;10.35;;;3.35;;
69327;SDS011;56472;52.114;5.492;2023-03-31T01:03:09;13.95;;;2.80;;
69327;SDS011;56472;52.114;5.492;2023-03-31T01:05:46;15.48;;;2.70;;
69327;SDS011;56472;52.114;5.492;2023-03-31T01:08:17;14.82;;;3.35;;
69327;SDS011;56472;52.114;5.492;2023-03-31T01:10:47;14.00;;;3.03;;
69327;SDS011;56472;52.114;5.492;2023-03-31T01:13:22;16.40;;;3.17;;
69327;SDS011;56472;52.114;5.492;2023-03-31T01:15:51;12.65;;;3.05;;
69327;SDS011;56472;52.114;5.492;2023-03-31T01:18:18;15.23;;;3.25;;
69327;SDS011;56472;52.114;5.492;2023-03-31T01:41:11;16.33;;;4.07;;
69327;SDS011;56472;52.114;5.492;2023-03-31T01:46:56;15.05;;;4.32;;
69327;SDS011;56472;52.114;5.492;2023-03-31T01:49:45;14.95;;;3.60;;
69327;SDS011;56472;52.114;5.492;2023-03-31T01:52:21;12.57;;;3.65;;
69327;SDS011;56472;52.114;5.492;2023-03-31T01:55:09;19.95;;;4.13;;
69327;SDS011;56472;52.114;5.492;2023-03-31T01:57:43;13.98;;;4.50;;
69327;SDS011;56472;52.114;5.492;2023-03-31T02:00:35;17.88;;;3.42;;
69327;SDS011;56472;52.114;5.492;2023-03-31T02:03:13;13.00;;;4.03;;
69327;SDS011;56472;52.114;5.492;2023-03-31T02:05:45;12.07;;;4.10;;
69327;SDS011;56472;52.114;5.492;2023-03-31T02:08:33;10.20;;;3.53;;
69327;SDS011;56472;52.114;5.492;2023-03-31T02:11:06;13.00;;;3.33;;
69327;SDS011;56472;52.114;5.492;2023-03-31T02:13:33;17.30;;;3.55;;
69327;SDS011;56472;52.114;5.492;2023-03-31T02:16:04;12.88;;;3.38;;
69327;SDS011;56472;52.114;5.492;2023-03-31T02:18:36;13.88;;;3.28;;
69327;SDS011;56472;52.114;5.492;2023-03-31T02:21:08;16.05;;;3.25;;
69327;SDS011;56472;52.114;5.492;2023-03-31T02:23:37;14.05;;;3.55;;
69327;SDS011;56472;52.114;5.492;2023-03-31T02:26:06;10.88;;;2.88;;
69327;SDS011;56472;52.114;5.492;2023-03-31T02:28:39;20.33;;;3.55;;
69327;SDS011;56472;52.114;5.492;2023-03-31T02:33:36;15.38;;;3.30;;
69327;SDS011;56472;52.114;5.492;2023-03-31T02:36:03;16.27;;;3.80;;
69327;SDS011;56472;52.114;5.492;2023-03-31T02:38:32;16.70;;;3.53;;
69327;SDS011;56472;52.114;5.492;2023-03-31T02:41:04;12.05;;;2.95;;
69327;SDS011;56472;52.114;5.492;2023-03-31T02:43:31;12.77;;;2.72;;
69327;SDS011;56472;52.114;5.492;2023-03-31T02:45:58;21.48;;;4.28;;
69327;SDS011;56472;52.114;5.492;2023-03-31T02:48:33;16.83;;;3.67;;
69327;SDS011;56472;52.114;5.492;2023-03-31T02:53:38;18.20;;;3.75;;
69327;SDS011;56472;52.114;5.492;2023-03-31T02:56:45;18.98;;;3.55;;
69327;SDS011;56472;52.114;5.492;2023-03-31T03:02:21;18.13;;;2.80;;
69327;SDS011;56472;52.114;5.492;2023-03-31T03:13:08;9.30;;;2.40;;
69327;SDS011;56472;52.114;5.492;2023-03-31T03:15:49;7.93;;;2.47;;
69327;SDS011;56472;52.114;5.492;2023-03-31T03:18:24;14.55;;;2.97;;
69327;SDS011;56472;52.114;5.492;2023-03-31T03:20:51;10.02;;;2.72;;
69327;SDS011;56472;52.114;5.492;2023-03-31T03:23:18;11.57;;;2.40;;
69327;SDS011;56472;52.114;5.492;2023-03-31T03:25:45;12.73;;;2.28;;
69327;SDS011;56472;52.114;5.492;2023-03-31T03:28:12;8.00;;;2.30;;
69327;SDS011;56472;52.114;5.492;2023-03-31T03:30:39;7.85;;;2.42;;
69327;SDS011;56472;52.114;5.492;2023-03-31T03:33:06;12.98;;;2.20;;
69327;SDS011;56472;52.114;5.492;2023-03-31T03:35:33;12.50;;;2.35;;
69327;SDS011;56472;52.114;5.492;2023-03-31T03:38:00;16.48;;;3.10;;
69327;SDS011;56472;52.114;5.492;2023-03-31T03:40:27;13.73;;;2.60;;
69327;SDS011;56472;52.114;5.492;2023-03-31T03:42:54;16.67;;;2.72;;
69327;SDS011;56472;52.114;5.492;2023-03-31T03:45:21;12.40;;;2.70;;
69327;SDS011;56472;52.114;5.492;2023-03-31T03:47:48;12.30;;;2.38;;
69327;SDS011;56472;52.114;5.492;2023-03-31T03:50:15;11.40;;;2.50;;
69327;SDS011;56472;52.114;5.492;2023-03-31T03:52:42;15.30;;;2.53;;
69327;SDS011;56472;52.114;5.492;2023-03-31T03:55:09;13.50;;;2.58;;
69327;SDS011;56472;52.114;5.492;2023-03-31T03:57:37;8.65;;;2.50;;
69327;SDS011;56472;52.114;5.492;2023-03-31T04:00:04;13.35;;;2.60;;
69327;SDS011;56472;52.114;5.492;2023-03-31T04:02:38;14.50;;;2.72;;
69327;SDS011;56472;52.114;5.492;2023-03-31T04:05:05;13.00;;;2.53;;
69327;SDS011;56472;52.114;5.492;2023-03-31T04:07:33;10.25;;;2.65;;
69327;SDS011;56472;52.114;5.492;2023-03-31T04:10:00;5.50;;;1.70;;
69327;SDS011;56472;52.114;5.492;2023-03-31T04:12:26;11.43;;;1.55;;
69327;SDS011;56472;52.114;5.492;2023-03-31T04:14:53;6.63;;;1.70;;
69327;SDS011;56472;52.114;5.492;2023-03-31T04:17:20;7.10;;;1.42;;
69327;SDS011;56472;52.114;5.492;2023-03-31T04:20:07;8.70;;;1.70;;
69327;SDS011;56472;52.114;5.492;2023-03-31T04:22:37;7.60;;;1.50;;
69327;SDS011;56472;52.114;5.492;2023-03-31T04:25:07;2.60;;;1.15;;
69327;SDS011;56472;52.114;5.492;2023-03-31T04:27:40;7.20;;;1.48;;
69327;SDS011;56472;52.114;5.492;2023-03-31T04:30:16;5.07;;;2.10;;
69327;SDS011;56472;52.114;5.492;2023-03-31T04:35:17;8.65;;;1.90;;
69327;SDS011;56472;52.114;5.492;2023-03-31T04:37:49;15.57;;;2.78;;
69327;SDS011;56472;52.114;5.492;2023-03-31T04:40:18;13.25;;;2.75;;
69327;SDS011;56472;52.114;5.492;2023-03-31T04:42:45;11.82;;;2.58;;
69327;SDS011;56472;52.114;5.492;2023-03-31T04:45:12;8.95;;;2.45;;
69327;SDS011;56472;52.114;5.492;2023-03-31T04:47:39;16.45;;;3.75;;
69327;SDS011;56472;52.114;5.492;2023-03-31T04:50:06;10.82;;;2.70;;
69327;SDS011;56472;52.114;5.492;2023-03-31T04:52:36;8.50;;;3.08;;
69327;SDS011;56472;52.114;5.492;2023-03-31T04:55:04;10.18;;;3.05;;
69327;SDS011;56472;52.114;5.492;2023-03-31T04:57:31;16.15;;;3.88;;
69327;SDS011;56472;52.114;5.492;2023-03-31T04:59:58;16.63;;;3.90;;
69327;SDS011;56472;52.114;5.492;2023-03-31T05:02:25;12.60;;;3.47;;
69327;SDS011;56472;52.114;5.492;2023-03-31T05:04:52;20.17;;;3.50;;
69327;SDS011;56472;52.114;5.492;2023-03-31T05:07:19;13.35;;;3.30;;
69327;SDS011;56472;52.114;5.492;2023-03-31T05:09:46;15.10;;;3.83;;
69327;SDS011;56472;52.114;5.492;2023-03-31T05:12:13;19.08;;;3.45;;
69327;SDS011;56472;52.114;5.492;2023-03-31T05:14:40;16.33;;;3.60;;
69327;SDS011;56472;52.114;5.492;2023-03-31T05:17:07;13.75;;;3.28;;
69327;SDS011;56472;52.114;5.492;2023-03-31T05:19:34;13.00;;;3.00;;
69327;SDS011;56472;52.114;5.492;2023-03-31T05:22:01;13.52;;;4.00;;
69327;SDS011;56472;52.114;5.492;2023-03-31T05:24:28;19.42;;;3.50;;
69327;SDS011;56472;52.114;5.492;2023-03-31T05:26:55;15.27;;;3.15;;
69327;SDS011;56472;52.114;5.492;2023-03-31T05:29:23;15.38;;;3.03;;
69327;SDS011;56472;52.114;5.492;2023-03-31T05:31:50;12.38;;;3.80;;
69327;SDS011;56472;52.114;5.492;2023-03-31T05:34:18;11.18;;;3.00;;
69327;SDS011;56472;52.114;5.492;2023-03-31T05:36:46;11.43;;;2.80;;
69327;SDS011;56472;52.114;5.492;2023-03-31T05:39:15;14.85;;;2.92;;
69327;SDS011;56472;52.114;5.492;2023-03-31T05:41:42;11.60;;;2.60;;
69327;SDS011;56472;52.114;5.492;2023-03-31T05:44:09;9.90;;;2.75;;
69327;SDS011;56472;52.114;5.492;2023-03-31T05:46:36;11.80;;;2.63;;
69327;SDS011;56472;52.114;5.492;2023-03-31T05:49:03;7.90;;;2.17;;
69327;SDS011;56472;52.114;5.492;2023-03-31T05:51:31;9.48;;;2.30;;
69327;SDS011;56472;52.114;5.492;2023-03-31T05:53:58;11.85;;;2.55;;
69327;SDS011;56472;52.114;5.492;2023-03-31T05:56:25;11.10;;;2.30;;
69327;SDS011;56472;52.114;5.492;2023-03-31T05:58:52;10.43;;;2.67;;
69327;SDS011;56472;52.114;5.492;2023-03-31T06:01:19;11.27;;;2.42;;
69327;SDS011;56472;52.114;5.492;2023-03-31T06:03:48;7.75;;;2.17;;
69327;SDS011;56472;52.114;5.492;2023-03-31T06:06:15;9.60;;;2.55;;
69327;SDS011;56472;52.114;5.492;2023-03-31T06:08:44;12.93;;;2.83;;
69327;SDS011;56472;52.114;5.492;2023-03-31T06:11:13;7.65;;;1.95;;
69327;SDS011;56472;52.114;5.492;2023-03-31T06:13:44;10.52;;;2.20;;
69327;SDS011;56472;52.114;5.492;2023-03-31T06:16:12;9.48;;;2.28;;
69327;SDS011;56472;52.114;5.492;2023-03-31T06:18:41;8.13;;;2.35;;
69327;SDS011;56472;52.114;5.492;2023-03-31T06:21:11;4.68;;;1.75;;
69327;SDS011;56472;52.114;5.492;2023-03-31T06:23:40;9.13;;;2.58;;
69327;SDS011;56472;52.114;5.492;2023-03-31T06:26:07;9.23;;;2.00;;
69327;SDS011;56472;52.114;5.492;2023-03-31T06:28:34;8.40;;;1.98;;
69327;SDS011;56472;52.114;5.492;2023-03-31T06:31:02;4.88;;;2.00;;
69327;SDS011;56472;52.114;5.492;2023-03-31T06:33:40;6.05;;;1.65;;
69327;SDS011;56472;52.114;5.492;2023-03-31T06:36:08;5.30;;;1.55;;
69327;SDS011;56472;52.114;5.492;2023-03-31T06:38:38;8.90;;;2.00;;
69327;SDS011;56472;52.114;5.492;2023-03-31T06:41:06;7.47;;;1.77;;
69327;SDS011;56472;52.114;5.492;2023-03-31T06:43:34;8.38;;;1.95;;
69327;SDS011;56472;52.114;5.492;2023-03-31T06:46:01;6.60;;;1.60;;
69327;SDS011;56472;52.114;5.492;2023-03-31T06:48:28;10.90;;;2.63;;
69327;SDS011;56472;52.114;5.492;2023-03-31T06:50:57;7.20;;;2.22;;
69327;SDS011;56472;52.114;5.492;2023-03-31T06:53:26;8.40;;;1.50;;
69327;SDS011;56472;52.114;5.492;2023-03-31T06:55:53;8.25;;;1.48;;
69327;SDS011;56472;52.114;5.492;2023-03-31T06:58:21;6.32;;;1.35;;
69327;SDS011;56472;52.114;5.492;2023-03-31T07:00:48;7.18;;;1.77;;
69327;SDS011;56472;52.114;5.492;2023-03-31T07:03:15;3.40;;;1.13;;
69327;SDS011;56472;52.114;5.492;2023-03-31T07:05:50;4.75;;;1.10;;
69327;SDS011;56472;52.114;5.492;2023-03-31T07:08:18;3.95;;;1.08;;
69327;SDS011;56472;52.114;5.492;2023-03-31T07:10:45;9.25;;;1.77;;
69327;SDS011;56472;52.114;5.492;2023-03-31T07:13:14;9.60;;;1.42;;
69327;SDS011;56472;52.114;5.492;2023-03-31T07:15:42;3.33;;;0.93;;
69327;SDS011;56472;52.114;5.492;2023-03-31T07:18:10;3.90;;;1.30;;
69327;SDS011;56472;52.114;5.492;2023-03-31T07:20:37;7.78;;;1.30;;
69327;SDS011;56472;52.114;5.492;2023-03-31T07:23:04;5.53;;;1.08;;
69327;SDS011;56472;52.114;5.492;2023-03-31T07:25:31;9.00;;;1.73;;
69327;SDS011;56472;52.114;5.492;2023-03-31T07:27:58;6.65;;;1.02;;
69327;SDS011;56472;52.114;5.492;2023-03-31T07:30:26;7.18;;;1.08;;
69327;SDS011;56472;52.114;5.492;2023-03-31T07:32:53;5.68;;;1.02;;
69327;SDS011;56472;52.114;5.492;2023-03-31T07:35:20;3.50;;;1.48;;
69327;SDS011;56472;52.114;5.492;2023-03-31T07:37:48;4.70;;;1.20;;
69327;SDS011;56472;52.114;5.492;2023-03-31T07:40:20;3.65;;;1.10;;
69327;SDS011;56472;52.114;5.492;2023-03-31T07:42:49;5.30;;;1.35;;
69327;SDS011;56472;52.114;5.492;2023-03-31T07:45:21;3.08;;;1.05;;
69327;SDS011;56472;52.114;5.492;2023-03-31T07:47:49;5.68;;;1.48;;
69327;SDS011;56472;52.114;5.492;2023-03-31T07:50:17;7.57;;;1.50;;
69327;SDS011;56472;52.114;5.492;2023-03-31T07:52:46;4.70;;;1.17;;
69327;SDS011;56472;52.114;5.492;2023-03-31T07:55:13;4.80;;;1.75;;
69327;SDS011;56472;52.114;5.492;2023-03-31T07:57:41;4.80;;;1.30;;
69327;SDS011;56472;52.114;5.492;2023-03-31T08:00:11;4.93;;;1.52;;
69327;SDS011;56472;52.114;5.492;2023-03-31T08:02:39;4.88;;;1.40;;
69327;SDS011;56472;52.114;5.492;2023-03-31T08:05:09;7.25;;;1.75;;
69327;SDS011;56472;52.114;5.492;2023-03-31T08:07:38;7.47;;;1.38;;
69327;SDS011;56472;52.114;5.492;2023-03-31T08:10:08;7.32;;;1.80;;
69327;SDS011;56472;52.114;5.492;2023-03-31T08:12:37;4.82;;;1.42;;
69327;SDS011;56472;52.114;5.492;2023-03-31T08:15:04;8.38;;;2.00;;
69327;SDS011;56472;52.114;5.492;2023-03-31T08:17:31;5.57;;;1.40;;
69327;SDS011;56472;52.114;5.492;2023-03-31T08:19:58;6.68;;;1.70;;
69327;SDS011;56472;52.114;5.492;2023-03-31T08:22:32;7.25;;;2.40;;
69327;SDS011;56472;52.114;5.492;2023-03-31T08:24:59;6.78;;;1.80;;
69327;SDS011;56472;52.114;5.492;2023-03-31T08:27:26;7.53;;;1.75;;
69327;SDS011;56472;52.114;5.492;2023-03-31T08:29:53;6.97;;;1.73;;
69327;SDS011;56472;52.114;5.492;2023-03-31T08:32:23;9.05;;;2.13;;
69327;SDS011;56472;52.114;5.492;2023-03-31T08:34:50;7.65;;;2.30;;
69327;SDS011;56472;52.114;5.492;2023-03-31T08:37:17;7.45;;;2.05;;
69327;SDS011;56472;52.114;5.492;2023-03-31T08:39:44;6.88;;;1.90;;
69327;SDS011;56472;52.114;5.492;2023-03-31T08:45:10;11.73;;;2.78;;
69327;SDS011;56472;52.114;5.492;2023-03-31T08:47:45;11.82;;;2.75;;
69327;SDS011;56472;52.114;5.492;2023-03-31T08:50:16;11.98;;;2.80;;
69327;SDS011;56472;52.114;5.492;2023-03-31T08:53:02;14.77;;;2.65;;
69327;SDS011;56472;52.114;5.492;2023-03-31T08:55:48;11.45;;;3.00;;
69327;SDS011;56472;52.114;5.492;2023-03-31T08:58:37;11.85;;;2.80;;
69327;SDS011;56472;52.114;5.492;2023-03-31T09:06:58;13.60;;;3.47;;
69327;SDS011;56472;52.114;5.492;2023-03-31T09:10:32;18.52;;;3.83;;
69327;SDS011;56472;52.114;5.492;2023-03-31T09:21:06;16.42;;;3.90;;
69327;SDS011;56472;52.114;5.492;2023-03-31T09:23:45;20.27;;;3.13;;
69327;SDS011;56472;52.114;5.492;2023-03-31T09:26:24;24.48;;;3.72;;
69327;SDS011;56472;52.114;5.492;2023-03-31T09:28:57;20.23;;;3.70;;
69327;SDS011;56472;52.114;5.492;2023-03-31T09:31:26;23.98;;;3.88;;
69327;SDS011;56472;52.114;5.492;2023-03-31T09:33:56;18.48;;;3.97;;
69327;SDS011;56472;52.114;5.492;2023-03-31T09:36:26;28.25;;;4.10;;
69327;SDS011;56472;52.114;5.492;2023-03-31T09:38:54;30.17;;;5.15;;
69327;SDS011;56472;52.114;5.492;2023-03-31T09:41:21;24.45;;;3.92;;
69327;SDS011;56472;52.114;5.492;2023-03-31T09:43:48;15.88;;;3.72;;
69327;SDS011;56472;52.114;5.492;2023-03-31T09:46:30;19.10;;;3.85;;
69327;SDS011;56472;52.114;5.492;2023-03-31T09:51:35;24.25;;;3.58;;
69327;SDS011;56472;52.114;5.492;2023-03-31T09:54:13;17.95;;;3.92;;
69327;SDS011;56472;52.114;5.492;2023-03-31T09:56:46;18.23;;;2.72;;
69327;SDS011;56472;52.114;5.492;2023-03-31T09:59:16;20.80;;;3.37;;
69327;SDS011;56472;52.114;5.492;2023-03-31T10:01:46;22.15;;;3.65;;
69327;SDS011;56472;52.114;5.492;2023-03-31T10:04:24;19.05;;;3.70;;
69327;SDS011;56472;52.114;5.492;2023-03-31T10:06:53;14.38;;;3.67;;
69327;SDS011;56472;52.114;5.492;2023-03-31T10:09:31;15.15;;;3.28;;
69327;SDS011;56472;52.114;5.492;2023-03-31T10:12:05;23.58;;;4.82;;
69327;SDS011;56472;52.114;5.492;2023-03-31T10:14:53;14.02;;;2.85;;
69327;SDS011;56472;52.114;5.492;2023-03-31T10:17:38;15.38;;;3.05;;
69327;SDS011;56472;52.114;5.492;2023-03-31T10:20:30;16.88;;;3.15;;
69327;SDS011;56472;52.114;5.492;2023-03-31T10:23:15;16.23;;;3.00;;
69327;SDS011;56472;52.114;5.492;2023-03-31T10:25:48;23.95;;;4.35;;
69327;SDS011;56472;52.114;5.492;2023-03-31T10:28:17;14.30;;;2.80;;
69327;SDS011;56472;52.114;5.492;2023-03-31T10:30:50;16.00;;;2.67;;
69327;SDS011;56472;52.114;5.492;2023-03-31T10:33:21;21.63;;;2.50;;
69327;SDS011;56472;52.114;5.492;2023-03-31T10:38:25;20.08;;;3.47;;
69327;SDS011;56472;52.114;5.492;2023-03-31T10:40:55;20.05;;;3.05;;
69327;SDS011;56472;52.114;5.492;2023-03-31T10:43:38;16.25;;;3.05;;
69327;SDS011;56472;52.114;5.492;2023-03-31T10:46:13;14.70;;;3.67;;
69327;SDS011;56472;52.114;5.492;2023-03-31T10:48:40;13.40;;;2.83;;
69327;SDS011;56472;52.114;5.492;2023-03-31T10:53:47;21.17;;;2.88;;
69327;SDS011;56472;52.114;5.492;2023-03-31T11:01:46;16.80;;;2.90;;
69327;SDS011;56472;52.114;5.492;2023-03-31T11:10:28;12.32;;;2.10;;
69327;SDS011;56472;52.114;5.492;2023-03-31T11:27:07;10.85;;;2.70;;
69327;SDS011;56472;52.114;5.492;2023-03-31T11:38:41;16.63;;;3.13;;
69327;SDS011;56472;52.114;5.492;2023-03-31T11:44:01;16.30;;;2.88;;
69327;SDS011;56472;52.114;5.492;2023-03-31T11:46:45;17.52;;;3.22;;
69327;SDS011;56472;52.114;5.492;2023-03-31T11:49:23;15.00;;;2.67;;
69327;SDS011;56472;52.114;5.492;2023-03-31T11:52:07;14.50;;;2.60;;
69327;SDS011;56472;52.114;5.492;2023-03-31T11:54:41;20.52;;;2.28;;
69327;SDS011;56472;52.114;5.492;2023-03-31T11:57:26;15.88;;;2.50;;
69327;SDS011;56472;52.114;5.492;2023-03-31T12:00:05;20.48;;;2.85;;
69327;SDS011;56472;52.114;5.492;2023-03-31T12:02:47;19.20;;;2.92;;
69327;SDS011;56472;52.114;5.492;2023-03-31T12:05:36;12.52;;;3.22;;
69327;SDS011;56472;52.114;5.492;2023-03-31T12:08:14;12.63;;;2.58;;
69327;SDS011;56472;52.114;5.492;2023-03-31T12:10:46;14.57;;;3.28;;
69327;SDS011;56472;52.114;5.492;2023-03-31T12:15:50;18.13;;;2.97;;
69327;SDS011;56472;52.114;5.492;2023-03-31T12:18:33;16.50;;;2.97;;
69327;SDS011;56472;52.114;5.492;2023-03-31T12:21:06;20.40;;;3.67;;
69327;SDS011;56472;52.114;5.492;2023-03-31T12:23:37;19.92;;;3.25;;
69327;SDS011;56472;52.114;5.492;2023-03-31T12:29:15;16.45;;;2.50;;
69327;SDS011;56472;52.114;5.492;2023-03-31T12:31:53;15.73;;;3.00;;
69327;SDS011;56472;52.114;5.492;2023-03-31T12:34:22;17.48;;;2.75;;
69327;SDS011;56472;52.114;5.492;2023-03-31T12:39:43;11.88;;;2.67;;
69327;SDS011;56472;52.114;5.492;2023-03-31T12:45:53;21.98;;;2.97;;
69327;SDS011;56472;52.114;5.492;2023-03-31T12:51:16;13.50;;;2.80;;
69327;SDS011;56472;52.114;5.492;2023-03-31T12:59:34;12.27;;;2.55;;
69327;SDS011;56472;52.114;5.492;2023-03-31T13:04:42;15.15;;;2.60;;
69327;SDS011;56472;52.114;5.492;2023-03-31T13:09:58;23.10;;;2.90;;
69327;SDS011;56472;52.114;5.492;2023-03-31T13:13:20;13.50;;;2.80;;
69327;SDS011;56472;52.114;5.492;2023-03-31T13:15:54;16.35;;;3.50;;
69327;SDS011;56472;52.114;5.492;2023-03-31T13:18:23;11.30;;;2.50;;
69327;SDS011;56472;52.114;5.492;2023-03-31T13:20:57;17.42;;;4.10;;
69327;SDS011;56472;52.114;5.492;2023-03-31T13:23:26;16.40;;;2.83;;
69327;SDS011;56472;52.114;5.492;2023-03-31T13:25:59;12.93;;;2.55;;
69327;SDS011;56472;52.114;5.492;2023-03-31T13:28:31;11.40;;;2.72;;
69327;SDS011;56472;52.114;5.492;2023-03-31T13:31:11;17.63;;;2.70;;
69327;SDS011;56472;52.114;5.492;2023-03-31T13:39:05;14.75;;;2.88;;
69327;SDS011;56472;52.114;5.492;2023-03-31T13:44:56;10.88;;;2.35;;
69327;SDS011;56472;52.114;5.492;2023-03-31T13:56:30;11.83;;;2.00;;
69327;SDS011;56472;52.114;5.492;2023-03-31T14:02:02;12.05;;;2.80;;
69327;SDS011;56472;52.114;5.492;2023-03-31T14:07:49;10.65;;;1.88;;
69327;SDS011;56472;52.114;5.492;2023-03-31T14:10:26;8.20;;;2.10;;
69327;SDS011;56472;52.114;5.492;2023-03-31T14:15:58;10.32;;;2.28;;
69327;SDS011;56472;52.114;5.492;2023-03-31T14:18:28;11.43;;;2.78;;
69327;SDS011;56472;52.114;5.492;2023-03-31T14:26:09;7.70;;;1.70;;
69327;SDS011;56472;52.114;5.492;2023-03-31T14:31:30;15.88;;;2.50;;
69327;SDS011;56472;52.114;5.492;2023-03-31T14:34:19;12.55;;;2.13;;
69327;SDS011;56472;52.114;5.492;2023-03-31T14:37:02;8.48;;;1.98;;
69327;SDS011;56472;52.114;5.492;2023-03-31T14:42:03;9.38;;;2.30;;
69327;SDS011;56472;52.114;5.492;2023-03-31T14:44:35;12.73;;;2.25;;
69327;SDS011;56472;52.114;5.492;2023-03-31T14:47:04;5.05;;;1.90;;
69327;SDS011;56472;52.114;5.492;2023-03-31T14:49:36;7.07;;;1.75;;
69327;SDS011;56472;52.114;5.492;2023-03-31T14:52:12;10.90;;;2.10;;
69327;SDS011;56472;52.114;5.492;2023-03-31T14:54:44;5.63;;;1.70;;
69327;SDS011;56472;52.114;5.492;2023-03-31T14:57:15;3.45;;;1.30;;
69327;SDS011;56472;52.114;5.492;2023-03-31T14:59:46;4.50;;;1.50;;
69327;SDS011;56472;52.114;5.492;2023-03-31T15:02:18;2.97;;;1.45;;
69327;SDS011;56472;52.114;5.492;2023-03-31T15:04:52;5.35;;;1.40;;
69327;SDS011;56472;52.114;5.492;2023-03-31T15:07:21;10.35;;;1.85;;
69327;SDS011;56472;52.114;5.492;2023-03-31T15:09:49;4.75;;;1.38;;
69327;SDS011;56472;52.114;5.492;2023-03-31T15:12:17;5.28;;;1.67;;
69327;SDS011;56472;52.114;5.492;2023-03-31T15:14:48;11.02;;;1.80;;
69327;SDS011;56472;52.114;5.492;2023-03-31T15:17:24;4.18;;;1.65;;
69327;SDS011;56472;52.114;5.492;2023-03-31T15:19:55;3.28;;;1.38;;
69327;SDS011;56472;52.114;5.492;2023-03-31T15:22:24;2.47;;;1.20;;
69327;SDS011;56472;52.114;5.492;2023-03-31T15:24:53;6.05;;;1.55;;
69327;SDS011;56472;52.114;5.492;2023-03-31T15:30:06;5.00;;;1.20;;
69327;SDS011;56472;52.114;5.492;2023-03-31T15:32:39;4.38;;;1.15;;
69327;SDS011;56472;52.114;5.492;2023-03-31T15:35:10;2.95;;;1.08;;
69327;SDS011;56472;52.114;5.492;2023-03-31T15:38:03;4.82;;;1.40;;
69327;SDS011;56472;52.114;5.492;2023-03-31T15:40:35;4.88;;;1.45;;
69327;SDS011;56472;52.114;5.492;2023-03-31T15:43:05;5.10;;;1.50;;
69327;SDS011;56472;52.114;5.492;2023-03-31T15:56:00;6.63;;;1.48;;
69327;SDS011;56472;52.114;5.492;2023-03-31T16:01:32;5.15;;;1.70;;
69327;SDS011;56472;52.114;5.492;2023-03-31T16:04:10;7.68;;;2.13;;
69327;SDS011;56472;52.114;5.492;2023-03-31T16:06:54;2.60;;;1.10;;
69327;SDS011;56472;52.114;5.492;2023-03-31T16:12:20;7.10;;;1.38;;
69327;SDS011;56472;52.114;5.492;2023-03-31T16:17:26;5.90;;;1.17;;
69327;SDS011;56472;52.114;5.492;2023-03-31T16:20:03;3.03;;;1.30;;
69327;SDS011;56472;52.114;5.492;2023-03-31T16:22:50;3.25;;;1.27;;
69327;SDS011;56472;52.114;5.492;2023-03-31T16:25:21;4.55;;;1.15;;
69327;SDS011;56472;52.114;5.492;2023-03-31T16:27:52;3.30;;;1.10;;
69327;SDS011;56472;52.114;5.492;2023-03-31T16:30:31;5.47;;;1.42;;
69327;SDS011;56472;52.114;5.492;2023-03-31T16:33:04;5.30;;;1.10;;
69327;SDS011;56472;52.114;5.492;2023-03-31T16:35:36;4.93;;;1.13;;
69327;SDS011;56472;52.114;5.492;2023-03-31T16:40:37;2.33;;;1.05;;
69327;SDS011;56472;52.114;5.492;2023-03-31T16:43:06;3.88;;;1.10;;
69327;SDS011;56472;52.114;5.492;2023-03-31T16:45:36;1.77;;;1.02;;
69327;SDS011;56472;52.114;5.492;2023-03-31T16:48:03;8.63;;;1.30;;
69327;SDS011;56472;52.114;5.492;2023-03-31T16:50:42;5.57;;;1.13;;
69327;SDS011;56472;52.114;5.492;2023-03-31T16:53:14;1.33;;;1.13;;
69327;SDS011;56472;52.114;5.492;2023-03-31T16:55:44;1.40;;;1.10;;
69327;SDS011;56472;52.114;5.492;2023-03-31T16:58:11;9.10;;;1.60;;
69327;SDS011;56472;52.114;5.492;2023-03-31T17:00:38;4.07;;;1.15;;
69327;SDS011;56472;52.114;5.492;2023-03-31T17:03:06;2.00;;;1.40;;
69327;SDS011;56472;52.114;5.492;2023-03-31T17:05:41;3.28;;;1.50;;
69327;SDS011;56472;52.114;5.492;2023-03-31T17:08:12;1.90;;;1.80;;
69327;SDS011;56472;52.114;5.492;2023-03-31T17:10:40;1.67;;;1.58;;
69327;SDS011;56472;52.114;5.492;2023-03-31T17:13:07;2.00;;;1.50;;
69327;SDS011;56472;52.114;5.492;2023-03-31T17:15:34;7.93;;;2.38;;
69327;SDS011;56472;52.114;5.492;2023-03-31T17:18:03;4.07;;;2.17;;
69327;SDS011;56472;52.114;5.492;2023-03-31T17:20:30;2.28;;;1.70;;
69327;SDS011;56472;52.114;5.492;2023-03-31T17:22:58;6.05;;;2.10;;
69327;SDS011;56472;52.114;5.492;2023-03-31T17:25:25;7.03;;;2.28;;
69327;SDS011;56472;52.114;5.492;2023-03-31T17:27:52;2.17;;;2.00;;
69327;SDS011;56472;52.114;5.492;2023-03-31T17:30:21;2.15;;;2.05;;
69327;SDS011;56472;52.114;5.492;2023-03-31T17:32:48;4.68;;;2.17;;
69327;SDS011;56472;52.114;5.492;2023-03-31T17:35:17;3.38;;;1.83;;
69327;SDS011;56472;52.114;5.492;2023-03-31T17:37:48;2.28;;;1.90;;
69327;SDS011;56472;52.114;5.492;2023-03-31T17:40:20;5.25;;;2.13;;
69327;SDS011;56472;52.114;5.492;2023-03-31T17:42:48;6.68;;;2.33;;
69327;SDS011;56472;52.114;5.492;2023-03-31T17:45:15;2.58;;;2.08;;
69327;SDS011;56472;52.114;5.492;2023-03-31T17:47:42;3.95;;;2.40;;
69327;SDS011;56472;52.114;5.492;2023-03-31T17:50:10;3.67;;;2.00;;
69327;SDS011;56472;52.114;5.492;2023-03-31T17:52:38;3.55;;;2.13;;
69327;SDS011;56472;52.114;5.492;2023-03-31T17:55:05;2.90;;;2.08;;
69327;SDS011;56472;52.114;5.492;2023-03-31T17:57:32;2.80;;;2.20;;
69327;SDS011;56472;52.114;5.492;2023-03-31T18:00:03;2.85;;;2.22;;
69327;SDS011;56472;52.114;5.492;2023-03-31T18:02:38;2.78;;;2.10;;
69327;SDS011;56472;52.114;5.492;2023-03-31T18:05:06;4.33;;;2.43;;
69327;SDS011;56472;52.114;5.492;2023-03-31T18:07:35;4.63;;;2.40;;
69327;SDS011;56472;52.114;5.492;2023-03-31T18:10:05;3.47;;;2.33;;
69327;SDS011;56472;52.114;5.492;2023-03-31T18:12:33;2.33;;;2.13;;
69327;SDS011;56472;52.114;5.492;2023-03-31T18:15:02;2.33;;;2.10;;
69327;SDS011;56472;52.114;5.492;2023-03-31T18:17:31;4.50;;;2.13;;
69327;SDS011;56472;52.114;5.492;2023-03-31T18:19:59;4.35;;;1.92;;